createdAt,value
2022-10-30T00:01:37.544Z,31.95
2022-10-30T00:04:04.487Z,30.42
2022-10-30T00:06:31.104Z,28.88
2022-10-30T00:08:57.716Z,29.55
2022-10-30T00:11:24.391Z,28.13
2022-10-30T00:13:51.035Z,28.55
2022-10-30T00:16:18.233Z,29.70
2022-10-30T00:18:44.913Z,29.27
2022-10-30T00:21:14.288Z,32.03
2022-10-30T00:23:56.058Z,32.78
2022-10-30T00:26:23.935Z,28.33
2022-10-30T00:28:53.000Z,28.23
2022-10-30T00:31:20.083Z,27.30
2022-10-30T00:33:51.535Z,26.67
2022-10-30T00:36:18.729Z,27.40
2022-10-30T00:38:45.496Z,26.88
2022-10-30T00:41:18.163Z,27.35
2022-10-30T00:43:45.251Z,28.40
2022-10-30T00:46:25.696Z,25.98
2022-10-30T00:48:58.081Z,23.88
2022-10-30T00:51:28.021Z,27.13
2022-10-30T00:53:57.919Z,27.40
2022-10-30T00:56:24.797Z,23.63
2022-10-30T00:58:57.331Z,25.77
2022-10-30T01:01:26.894Z,23.35
2022-10-30T01:03:57.593Z,23.50
2022-10-30T01:06:25.126Z,23.67
2022-10-30T01:08:57.029Z,27.77
2022-10-30T01:11:26.685Z,24.88
2022-10-30T01:13:55.336Z,24.27
2022-10-30T01:16:46.179Z,24.13
2022-10-30T01:19:14.836Z,22.15
2022-10-30T01:21:57.144Z,24.08
2022-10-30T01:24:34.035Z,22.23
2022-10-30T01:27:23.816Z,22.15
2022-10-30T01:29:56.313Z,22.50
2022-10-30T01:32:54.836Z,23.35
2022-10-30T01:38:03.566Z,23.08
2022-10-30T01:40:30.293Z,23.35
2022-10-30T01:42:58.528Z,22.52
2022-10-30T01:45:46.178Z,22.15
2022-10-30T01:48:27.383Z,21.92
2022-10-30T01:51:03.026Z,20.90
2022-10-30T01:53:45.111Z,21.27
2022-10-30T01:56:18.827Z,21.05
2022-10-30T01:58:55.031Z,21.95
2022-10-30T02:01:23.843Z,22.02
2022-10-30T02:03:51.590Z,21.45
2022-10-30T02:06:18.369Z,21.30
2022-10-30T02:08:45.007Z,21.55
2022-10-30T02:11:12.321Z,22.65
2022-10-30T02:13:39.137Z,21.73
2022-10-30T02:16:06.554Z,21.00
2022-10-30T02:18:33.427Z,22.40
2022-10-30T02:21:00.298Z,20.70
2022-10-30T02:23:26.967Z,22.10
2022-10-30T02:25:53.663Z,22.15
2022-10-30T02:28:20.312Z,21.20
2022-10-30T02:30:46.962Z,23.30
2022-10-30T02:33:13.699Z,23.23
2022-10-30T02:35:40.470Z,24.88
2022-10-30T02:38:07.132Z,24.42
2022-10-30T02:40:33.787Z,25.08
2022-10-30T02:43:00.442Z,24.67
2022-10-30T02:45:27.087Z,25.98
2022-10-30T02:47:53.786Z,23.75
2022-10-30T02:50:20.438Z,22.45
2022-10-30T02:52:47.071Z,23.00
2022-10-30T02:55:13.699Z,22.02
2022-10-30T02:57:40.298Z,20.55
2022-10-30T03:00:07.580Z,20.15
2022-10-30T03:02:34.242Z,20.88
2022-10-30T03:05:04.569Z,19.90
2022-10-30T03:07:31.247Z,19.75
2022-10-30T03:09:57.875Z,21.27
2022-10-30T03:12:24.611Z,22.58
2022-10-30T03:14:54.544Z,21.02
2022-10-30T03:17:21.181Z,22.52
2022-10-30T03:19:47.821Z,23.08
2022-10-30T03:22:14.438Z,23.95
2022-10-30T03:24:41.091Z,23.52
2022-10-30T03:27:07.731Z,21.60
2022-10-30T03:29:34.358Z,22.40
2022-10-30T03:32:00.996Z,21.50
2022-10-30T03:34:27.853Z,22.67
2022-10-30T03:36:54.953Z,20.88
2022-10-30T03:39:21.583Z,20.40
2022-10-30T03:41:48.325Z,21.33
2022-10-30T03:44:14.996Z,20.42
2022-10-30T03:46:41.642Z,21.80
2022-10-30T03:49:08.281Z,20.55
2022-10-30T03:51:34.930Z,21.35
2022-10-30T03:54:01.549Z,21.73
2022-10-30T03:56:28.231Z,21.42
2022-10-30T03:58:54.890Z,23.10
2022-10-30T04:01:21.647Z,22.20
2022-10-30T04:03:48.408Z,21.92
2022-10-30T04:06:15.035Z,21.95
2022-10-30T04:08:41.701Z,22.95
2022-10-30T04:11:11.181Z,20.92
2022-10-30T04:13:37.911Z,22.08
2022-10-30T04:16:06.562Z,22.30
2022-10-30T04:18:33.194Z,21.70
2022-10-30T04:21:00.868Z,21.20
2022-10-30T04:23:27.743Z,20.45
2022-10-30T04:25:54.532Z,20.45
2022-10-30T04:28:21.672Z,20.92
2022-10-30T04:30:48.422Z,22.38
2022-10-30T04:33:15.531Z,22.67
2022-10-30T04:35:43.071Z,22.27
2022-10-30T04:38:12.666Z,23.25
2022-10-30T04:40:41.457Z,25.23
2022-10-30T04:43:09.221Z,24.13
2022-10-30T04:45:37.052Z,22.08
2022-10-30T04:48:12.574Z,24.23
2022-10-30T04:50:39.498Z,27.13
2022-10-30T04:53:10.430Z,28.88
2022-10-30T04:55:37.079Z,34.10
2022-10-30T04:58:05.194Z,35.60
2022-10-30T05:00:32.217Z,43.33
2022-10-30T05:03:00.964Z,40.95
2022-10-30T05:05:29.994Z,46.28
2022-10-30T05:07:57.258Z,45.03
2022-10-30T05:10:24.301Z,43.67
2022-10-30T05:12:53.502Z,41.00
2022-10-30T05:15:20.373Z,37.45
2022-10-30T05:17:51.731Z,30.15
2022-10-30T05:20:19.096Z,28.50
2022-10-30T05:22:46.153Z,28.05
2022-10-30T05:25:12.870Z,29.20
2022-10-30T05:27:39.531Z,30.65
2022-10-30T05:30:06.731Z,39.00
2022-10-30T05:32:33.757Z,40.80
2022-10-30T05:35:00.392Z,38.60
2022-10-30T05:37:27.275Z,45.80
2022-10-30T05:39:53.877Z,43.45
2022-10-30T05:42:20.617Z,42.03
2022-10-30T05:45:00.232Z,42.35
2022-10-30T05:47:27.933Z,38.55
2022-10-30T05:49:54.601Z,34.00
2022-10-30T05:52:21.317Z,34.25
2022-10-30T05:54:49.695Z,34.03
2022-10-30T05:57:16.368Z,32.50
2022-10-30T05:59:44.007Z,31.52
2022-10-30T06:02:10.683Z,29.73
2022-10-30T06:04:37.469Z,26.33
2022-10-30T06:07:04.210Z,25.73
2022-10-30T06:09:30.791Z,27.67
2022-10-30T06:11:58.592Z,29.13
2022-10-30T06:14:25.243Z,27.58
2022-10-30T06:16:51.918Z,31.98
2022-10-30T06:19:19.209Z,33.33
2022-10-30T06:21:46.806Z,38.25
2022-10-30T06:24:14.353Z,38.72
2022-10-30T06:26:42.272Z,33.95
2022-10-30T06:29:08.969Z,32.50
2022-10-30T06:31:35.585Z,33.22
2022-10-30T06:34:02.253Z,31.30
2022-10-30T06:36:29.013Z,32.15
2022-10-30T06:38:55.709Z,32.78
2022-10-30T06:41:29.080Z,34.30
2022-10-30T06:43:56.897Z,35.00
2022-10-30T06:46:26.931Z,39.90
2022-10-30T06:48:57.391Z,42.22
2022-10-30T06:51:24.052Z,44.60
2022-10-30T06:53:50.710Z,41.13
2022-10-30T06:56:17.287Z,39.90
2022-10-30T06:58:43.985Z,40.05
2022-10-30T07:01:10.698Z,40.10
2022-10-30T07:03:37.429Z,39.60
2022-10-30T07:06:07.678Z,39.80
2022-10-30T07:08:34.325Z,35.88
2022-10-30T07:11:00.965Z,37.88
2022-10-30T07:13:27.556Z,42.60
2022-10-30T07:15:57.466Z,42.80
2022-10-30T07:18:24.088Z,45.05
2022-10-30T07:20:55.443Z,51.97
2022-10-30T07:23:22.318Z,48.22
2022-10-30T07:25:49.026Z,51.17
2022-10-30T07:28:15.705Z,52.67
2022-10-30T07:30:42.380Z,53.70
2022-10-30T07:33:10.182Z,52.10
2022-10-30T07:35:36.995Z,50.80
2022-10-30T07:38:06.730Z,55.00
2022-10-30T07:40:34.540Z,57.72
2022-10-30T07:43:03.390Z,57.17
2022-10-30T07:45:31.075Z,54.97
2022-10-30T07:47:58.228Z,58.08
2022-10-30T07:50:25.127Z,53.85
2022-10-30T07:52:51.845Z,58.33
2022-10-30T07:55:18.733Z,54.88
2022-10-30T07:57:45.382Z,58.78
2022-10-30T08:00:14.005Z,55.97
2022-10-30T08:02:41.098Z,55.20
2022-10-30T08:05:09.191Z,57.83
2022-10-30T08:07:37.927Z,57.95
2022-10-30T08:10:05.904Z,60.00
2022-10-30T08:12:34.302Z,60.25
2022-10-30T08:15:01.172Z,63.42
2022-10-30T08:17:28.397Z,57.70
2022-10-30T08:19:55.519Z,59.08
2022-10-30T08:22:22.185Z,55.50
2022-10-30T08:24:48.901Z,55.80
2022-10-30T08:27:15.639Z,56.00
2022-10-30T08:29:42.339Z,57.92
2022-10-30T08:32:09.970Z,58.33
2022-10-30T08:34:36.631Z,67.35
2022-10-30T08:37:03.331Z,53.90
2022-10-30T08:39:30.007Z,60.97
2022-10-30T08:41:59.821Z,58.38
2022-10-30T08:44:26.988Z,59.97
2022-10-30T08:46:53.648Z,59.33
2022-10-30T08:49:20.395Z,60.45
2022-10-30T08:51:47.179Z,61.85
2022-10-30T08:54:13.792Z,59.42
2022-10-30T08:56:40.418Z,59.35
2022-10-30T08:59:07.103Z,60.38
2022-10-30T09:01:33.854Z,58.47
2022-10-30T09:04:00.552Z,58.97
2022-10-30T09:06:27.198Z,62.42
2022-10-30T09:08:53.855Z,60.05
2022-10-30T09:11:20.505Z,61.85
2022-10-30T09:13:49.336Z,58.97
2022-10-30T09:16:15.982Z,61.25
2022-10-30T09:18:42.698Z,62.17
2022-10-30T09:21:09.381Z,62.00
2022-10-30T09:23:36.055Z,57.88
2022-10-30T09:26:02.793Z,61.30
2022-10-30T09:28:29.464Z,63.20
2022-10-30T09:31:01.541Z,61.25
2022-10-30T09:33:28.391Z,59.47
2022-10-30T09:35:55.006Z,56.80
2022-10-30T09:38:21.664Z,55.38
2022-10-30T09:41:05.312Z,57.38
2022-10-30T09:43:52.095Z,57.08
2022-10-30T09:46:20.114Z,57.20
2022-10-30T09:49:11.945Z,61.33
2022-10-30T09:52:13.705Z,60.95
2022-10-30T09:54:56.806Z,58.60
2022-10-30T09:57:32.580Z,51.33
2022-10-30T10:00:03.847Z,50.53
2022-10-30T10:02:35.632Z,50.92
2022-10-30T10:05:14.516Z,51.78
2022-10-30T10:07:46.827Z,45.88
2022-10-30T10:10:22.410Z,47.00
2022-10-30T10:12:55.743Z,48.50
2022-10-30T10:15:48.779Z,45.15
2022-10-30T10:18:25.720Z,43.45
2022-10-30T10:20:57.649Z,43.67
2022-10-30T10:23:35.778Z,43.70
2022-10-30T10:26:14.839Z,42.83
2022-10-30T10:28:59.695Z,41.42
2022-10-30T10:31:43.355Z,40.15
2022-10-30T10:34:20.993Z,38.80
2022-10-30T10:37:06.032Z,36.45
2022-10-30T10:40:03.160Z,39.15
2022-10-30T10:42:46.206Z,34.47
2022-10-30T10:45:12.840Z,35.83
2022-10-30T10:48:10.092Z,33.92
2022-10-30T10:50:47.137Z,33.58
2022-10-30T10:53:44.355Z,32.00
2022-10-30T10:58:51.695Z,31.13
2022-10-30T11:01:23.678Z,31.33
2022-10-30T11:03:57.835Z,33.03
2022-10-30T11:06:27.907Z,33.47
2022-10-30T11:09:12.793Z,33.25
2022-10-30T11:11:39.456Z,31.17
2022-10-30T11:14:15.711Z,32.72
2022-10-30T11:19:30.330Z,30.02
2022-10-30T11:21:58.330Z,30.40
2022-10-30T11:24:31.206Z,30.42
2022-10-30T11:27:15.503Z,30.13
2022-10-30T11:29:49.431Z,28.50
2022-10-30T11:32:22.639Z,28.40
2022-10-30T11:35:13.498Z,30.00
2022-10-30T11:37:43.045Z,28.63
2022-10-30T11:40:20.398Z,27.35
2022-10-30T11:42:59.617Z,26.63
2022-10-30T11:45:39.926Z,26.48
2022-10-30T11:48:19.906Z,23.35
2022-10-30T11:50:49.306Z,21.23
2022-10-30T11:53:23.016Z,22.33
2022-10-30T11:55:50.847Z,17.33
2022-10-30T11:58:35.766Z,15.63
2022-10-30T12:01:12.236Z,15.57
2022-10-30T12:03:40.925Z,20.73
2022-10-30T12:06:09.355Z,19.02
2022-10-30T12:08:36.080Z,19.80
2022-10-30T12:11:05.492Z,20.25
2022-10-30T12:13:39.184Z,20.40
2022-10-30T12:16:14.682Z,21.42
2022-10-30T12:18:42.932Z,21.23
2022-10-30T12:21:10.263Z,21.02
2022-10-30T12:23:38.140Z,21.33
2022-10-30T12:26:11.032Z,20.30
2022-10-30T12:28:39.268Z,19.77
2022-10-30T12:31:19.518Z,19.80
2022-10-30T12:33:58.566Z,20.17
2022-10-30T12:36:31.032Z,21.83
2022-10-30T12:39:03.679Z,19.52
2022-10-30T12:41:51.230Z,21.77
2022-10-30T12:44:26.995Z,20.77
2022-10-30T12:47:01.306Z,21.60
2022-10-30T12:49:34.139Z,20.60
2022-10-30T12:52:07.546Z,21.45
2022-10-30T12:54:42.736Z,19.30
2022-10-30T12:57:22.673Z,19.40
2022-10-30T13:00:10.006Z,19.40
2022-10-30T13:03:07.104Z,20.00
2022-10-30T13:08:22.339Z,19.42
2022-10-30T13:10:54.869Z,21.38
2022-10-30T13:13:29.142Z,19.35
2022-10-30T13:15:58.672Z,21.27
2022-10-30T13:18:27.240Z,20.50
2022-10-30T13:21:08.495Z,17.92
2022-10-30T13:23:46.410Z,17.83
2022-10-30T13:26:28.896Z,15.68
2022-10-30T13:29:12.020Z,14.52
2022-10-30T13:32:09.137Z,13.90
2022-10-30T13:37:27.520Z,11.25
2022-10-30T13:40:24.748Z,9.25
2022-10-30T13:43:26.661Z,9.00
2022-10-30T13:46:17.935Z,9.40
2022-10-30T13:49:10.161Z,9.90
2022-10-30T13:51:53.157Z,8.68
2022-10-30T13:54:38.789Z,9.15
2022-10-30T13:57:23.821Z,9.63
2022-10-30T14:00:11.504Z,8.25
2022-10-30T14:02:53.545Z,8.57
2022-10-30T14:05:33.784Z,8.30
2022-10-30T14:08:15.670Z,7.95
2022-10-30T14:10:42.268Z,8.23
2022-10-30T14:13:26.963Z,8.27
2022-10-30T14:15:55.395Z,7.97
2022-10-30T14:18:25.712Z,7.78
2022-10-30T14:20:54.412Z,7.53
2022-10-30T14:23:22.845Z,7.07
2022-10-30T14:26:05.902Z,7.32
2022-10-30T14:28:38.838Z,7.30
2022-10-30T14:31:10.297Z,6.53
2022-10-30T14:33:46.313Z,6.50
2022-10-30T14:36:28.351Z,6.88
2022-10-30T14:39:00.392Z,5.70
2022-10-30T14:41:44.915Z,5.90
2022-10-30T14:44:22.844Z,5.78
2022-10-30T14:47:00.818Z,5.53
2022-10-30T14:49:46.559Z,5.78
2022-10-30T14:52:28.453Z,5.93
2022-10-30T14:55:00.049Z,6.20
2022-10-30T14:57:48.247Z,4.90
2022-10-30T15:00:35.121Z,5.40
2022-10-30T15:03:15.540Z,5.30
2022-10-30T15:06:17.193Z,4.68
2022-10-30T15:08:57.982Z,4.97
2022-10-30T15:11:39.916Z,5.85
2022-10-30T15:14:20.972Z,6.50
2022-10-30T15:16:51.472Z,6.90
2022-10-30T15:19:24.118Z,6.30
2022-10-30T15:21:54.019Z,7.35
2022-10-30T15:24:29.569Z,6.50
2022-10-30T15:27:01.038Z,6.43
2022-10-30T15:29:30.543Z,6.43
2022-10-30T15:32:00.981Z,6.25
2022-10-30T15:34:29.600Z,6.60
2022-10-30T15:36:56.623Z,6.32
2022-10-30T15:39:23.722Z,6.88
2022-10-30T15:41:54.087Z,7.60
2022-10-30T15:44:26.897Z,7.20
2022-10-30T15:46:55.677Z,8.02
2022-10-30T15:49:30.150Z,7.18
2022-10-30T15:51:57.193Z,8.77
2022-10-30T15:54:25.910Z,7.28
2022-10-30T15:57:31.739Z,6.97
2022-10-30T15:59:51.609Z,6.75
2022-10-30T16:02:22.332Z,6.53
2022-10-30T16:04:50.056Z,6.50
2022-10-30T16:07:22.267Z,6.75
2022-10-30T16:10:01.405Z,7.30
2022-10-30T16:12:30.847Z,7.13
2022-10-30T16:15:01.416Z,7.65
2022-10-30T16:17:28.492Z,8.20
2022-10-30T16:20:01.014Z,8.05
2022-10-30T16:22:34.442Z,7.32
2022-10-30T16:25:01.647Z,7.28
2022-10-30T16:27:28.321Z,7.93
2022-10-30T16:29:59.515Z,8.20
2022-10-30T16:32:33.429Z,7.78
2022-10-30T16:35:03.154Z,8.27
2022-10-30T16:37:36.621Z,8.63
2022-10-30T16:40:12.283Z,9.48
2022-10-30T16:42:39.264Z,9.55
2022-10-30T16:45:45.719Z,8.38
2022-10-30T16:48:19.526Z,9.20
2022-10-30T16:50:47.195Z,7.80
2022-10-30T16:53:29.756Z,7.00
2022-10-30T16:55:58.173Z,8.15
2022-10-30T16:58:28.263Z,8.60
2022-10-30T17:01:02.708Z,9.43
2022-10-30T17:03:39.579Z,8.95
2022-10-30T17:06:31.342Z,8.00
2022-10-30T17:09:01.375Z,8.25
2022-10-30T17:11:46.319Z,8.50
2022-10-30T17:14:19.758Z,7.38
2022-10-30T17:16:57.566Z,8.95
2022-10-30T17:19:39.326Z,8.60
2022-10-30T17:22:12.811Z,8.85
2022-10-30T17:24:39.606Z,8.88
2022-10-30T17:27:23.266Z,8.85
2022-10-30T17:29:49.855Z,8.30
2022-10-30T17:32:21.953Z,7.88
2022-10-30T17:35:00.099Z,8.38
2022-10-30T17:37:27.248Z,8.27
2022-10-30T17:39:53.906Z,9.20
2022-10-30T17:42:20.719Z,8.45
2022-10-30T17:44:47.806Z,8.90
2022-10-30T17:47:17.578Z,12.50
2022-10-30T17:49:45.081Z,8.65
2022-10-30T17:52:14.677Z,9.10
2022-10-30T17:54:42.100Z,11.25
2022-10-30T17:57:11.751Z,11.40
2022-10-30T17:59:39.281Z,10.65
2022-10-30T18:02:16.045Z,10.45
2022-10-30T18:04:43.606Z,11.38
2022-10-30T18:07:13.074Z,11.50
2022-10-30T18:09:40.211Z,10.82
2022-10-30T18:12:12.307Z,11.77
2022-10-30T18:14:38.920Z,10.75
2022-10-30T18:17:05.874Z,11.43
2022-10-30T18:19:32.534Z,12.05
2022-10-30T18:21:59.233Z,12.02
2022-10-30T18:24:25.868Z,11.32
2022-10-30T18:26:53.967Z,11.68
2022-10-30T18:29:21.094Z,11.85
2022-10-30T18:31:47.856Z,10.30
2022-10-30T18:34:18.267Z,11.48
2022-10-30T18:36:45.032Z,12.20
2022-10-30T18:39:13.010Z,11.63
2022-10-30T18:41:42.980Z,13.18
2022-10-30T18:44:18.286Z,11.45
2022-10-30T18:46:45.811Z,10.35
2022-10-30T18:49:12.910Z,12.55
2022-10-30T18:51:40.247Z,11.77
2022-10-30T18:54:14.064Z,11.40
2022-10-30T18:56:40.906Z,11.13
2022-10-30T18:59:07.505Z,10.63
2022-10-30T19:01:35.154Z,9.82
2022-10-30T19:04:03.761Z,10.93
2022-10-30T19:06:32.859Z,9.95
2022-10-30T19:09:02.820Z,9.48
2022-10-30T19:11:31.784Z,10.10
2022-10-30T19:13:59.199Z,10.10
2022-10-30T19:16:25.874Z,9.95
2022-10-30T19:18:53.038Z,10.15
2022-10-30T19:21:26.091Z,9.32
2022-10-30T19:23:54.509Z,9.50
2022-10-30T19:26:21.181Z,9.70
2022-10-30T19:28:47.821Z,9.60
2022-10-30T19:31:17.372Z,9.98
2022-10-30T19:33:44.728Z,9.93
2022-10-30T19:36:36.181Z,9.93
2022-10-30T19:39:09.118Z,9.07
2022-10-30T19:41:36.912Z,9.48
2022-10-30T19:44:04.277Z,9.80
2022-10-30T19:46:31.035Z,9.82
2022-10-30T19:48:58.945Z,9.95
2022-10-30T19:51:27.942Z,9.85
2022-10-30T19:53:54.642Z,9.80
2022-10-30T19:56:21.527Z,10.40
2022-10-30T19:58:48.587Z,10.73
2022-10-30T20:01:16.048Z,10.13
2022-10-30T20:03:42.930Z,9.65
2022-10-30T20:06:12.441Z,9.02
2022-10-30T20:08:39.269Z,9.20
2022-10-30T20:11:05.952Z,9.85
2022-10-30T20:13:33.557Z,8.85
2022-10-30T20:16:05.354Z,8.95
2022-10-30T20:18:35.085Z,8.95
2022-10-30T20:21:08.263Z,8.95
2022-10-30T20:23:35.783Z,8.90
2022-10-30T20:26:06.569Z,7.78
2022-10-30T20:28:36.511Z,7.75
2022-10-30T20:31:05.358Z,8.98
2022-10-30T20:33:32.125Z,8.65
2022-10-30T20:35:58.791Z,9.13
2022-10-30T20:38:29.366Z,9.07
2022-10-30T20:40:57.976Z,8.80
2022-10-30T20:43:29.402Z,9.13
2022-10-30T20:45:58.291Z,9.48
2022-10-30T20:48:26.219Z,8.43
2022-10-30T20:50:54.607Z,8.60
2022-10-30T20:53:21.234Z,7.60
2022-10-30T20:55:48.145Z,8.00
2022-10-30T20:58:14.802Z,7.75
2022-10-30T21:00:41.665Z,7.95
2022-10-30T21:03:11.255Z,8.25
2022-10-30T21:05:43.839Z,8.60
2022-10-30T21:08:11.059Z,7.90
2022-10-30T21:10:38.885Z,8.85
2022-10-30T21:13:08.791Z,7.85
2022-10-30T21:15:39.477Z,7.38
2022-10-30T21:18:06.690Z,8.55
2022-10-30T21:20:33.429Z,8.57
2022-10-30T21:23:00.616Z,8.40
2022-10-30T21:25:27.362Z,8.93
2022-10-30T21:27:56.560Z,8.43
2022-10-30T21:30:23.377Z,8.50
2022-10-30T21:32:50.496Z,8.43
2022-10-30T21:35:17.537Z,8.60
2022-10-30T21:37:44.145Z,9.65
2022-10-30T21:40:11.401Z,8.30
2022-10-30T21:42:38.060Z,8.18
2022-10-30T21:45:06.040Z,7.97
2022-10-30T21:47:32.649Z,8.73
2022-10-30T21:49:59.296Z,8.80
2022-10-30T21:52:25.916Z,8.77
2022-10-30T21:54:52.560Z,7.90
2022-10-30T21:57:19.413Z,8.98
2022-10-30T21:59:46.063Z,9.52
2022-10-30T22:02:15.173Z,10.15
2022-10-30T22:04:42.014Z,8.88
2022-10-30T22:07:08.868Z,9.95
2022-10-30T22:09:35.903Z,9.70
2022-10-30T22:12:02.555Z,10.00
2022-10-30T22:14:29.463Z,9.57
2022-10-30T22:16:56.290Z,9.77
2022-10-30T22:19:22.991Z,9.85
2022-10-30T22:21:49.630Z,9.90
2022-10-30T22:24:17.348Z,10.88
2022-10-30T22:26:46.571Z,12.13
2022-10-30T22:29:13.357Z,11.73
2022-10-30T22:31:40.066Z,12.60
2022-10-30T22:34:06.672Z,14.68
2022-10-30T22:36:33.618Z,13.73
2022-10-30T22:39:02.735Z,14.00
2022-10-30T22:41:34.453Z,15.20
2022-10-30T22:44:08.028Z,14.10
2022-10-30T22:46:36.289Z,14.75
2022-10-30T22:49:03.293Z,12.80
2022-10-30T22:51:33.393Z,13.32
2022-10-30T22:54:02.081Z,12.57
2022-10-30T22:56:32.184Z,12.35
2022-10-30T22:59:02.389Z,10.30
2022-10-30T23:01:31.626Z,10.13
2022-10-30T23:04:00.656Z,10.15
2022-10-30T23:06:29.037Z,10.68
2022-10-30T23:08:58.257Z,10.05
2022-10-30T23:11:29.438Z,14.90
2022-10-30T23:13:56.801Z,17.60
2022-10-30T23:16:25.370Z,15.68
2022-10-30T23:18:54.605Z,17.30
2022-10-30T23:21:23.332Z,17.63
2022-10-30T23:23:53.238Z,18.35
2022-10-30T23:26:24.294Z,19.15
2022-10-30T23:28:53.318Z,22.77
2022-10-30T23:31:22.912Z,21.63
2022-10-30T23:33:51.072Z,19.23
2022-10-30T23:36:18.441Z,15.63
2022-10-30T23:38:45.583Z,17.33
2022-10-30T23:41:12.207Z,16.30
2022-10-30T23:43:38.870Z,17.70
2022-10-30T23:46:05.703Z,16.58
2022-10-30T23:48:32.437Z,22.10
2022-10-30T23:50:59.092Z,20.55
2022-10-30T23:53:25.733Z,20.80
2022-10-30T23:55:54.050Z,22.65
2022-10-30T23:58:21.327Z,19.23
